| time (UTC) | temp C | wind direction | speed KPH | gust KPH | rain 1hr cm | rain 24hr cm | rain mn cm | humidity % | barometer mb |
| 20260906211613 | 28 | 117 | 19.3 | 30.6 | 0.00 | 0.00 | 0.00 | 42 | 1019.2 |
| 20260906210114 | 28 | 174 | 20.9 | 35.4 | 0.00 | 0.00 | 0.00 | 42 | 1019.3 |
| 20260906204604 | 28 | 149 | 14.5 | 27.4 | 0.00 | 0.00 | 0.00 | 42 | 1019.3 |
| 20260906203111 | 28 | 200 | 11.3 | 24.1 | 0.00 | 0.00 | 0.00 | 41 | 1019.5 |
| 20260906201614 | 28 | 142 | 16.1 | 32.2 | 0.00 | 0.00 | 0.00 | 42 | 1019.5 |
| 20260906200115 | 29 | 143 | 8.0 | 22.5 | 0.00 | 0.00 | 0.00 | 41 | 1019.5 |
| 20260906194631 | 28 | 188 | 8.0 | 25.7 | 0.00 | 0.00 | 0.00 | 40 | 1019.5 |
| 20260906193107 | 28 | 172 | 11.3 | 22.5 | 0.00 | 0.00 | 0.00 | 39 | 1019.7 |
| 20260906191609 | 28 | 167 | 12.9 | 20.9 | 0.00 | 0.00 | 0.00 | 41 | 1019.8 |
| 20260906190108 | 28 | 193 | 12.9 | 19.3 | 0.00 | 0.00 | 0.00 | 41 | 1019.9 |
| 20260906184615 | 27 | 88 | 6.4 | 25.7 | 0.00 | 0.00 | 0.00 | 43 | 1020.0 |
| 20260906183106 | 27 | 103 | 12.9 | 22.5 | 0.00 | 0.00 | 0.00 | 43 | 1020.3 |
| 20260906181605 | 27 | 167 | 11.3 | 22.5 | 0.00 | 0.00 | 0.00 | 45 | 1020.5 |
| 20260906180107 | 26 | 195 | 12.9 | 29.0 | 0.00 | 0.00 | 0.00 | 45 | 1020.6 |
| 20260906174606 | 26 | 170 | 12.9 | 24.1 | 0.00 | 0.00 | 0.00 | 45 | 1020.9 |
| 20260906173109 | 25 | 207 | 11.3 | 19.3 | 0.00 | 0.00 | 0.00 | 48 | 1021.2 |
| 20260906171610 | 25 | 184 | 6.4 | 14.5 | 0.00 | 0.00 | 0.00 | 49 | 1021.2 |
| 20260906170106 | 24 | 163 | 8.0 | 16.1 | 0.00 | 0.00 | 0.00 | 50 | 1021.3 |
| 20260906164608 | 24 | 162 | 11.3 | 24.1 | 0.00 | 0.00 | 0.00 | 52 | 1021.6 |
| 20260906163110 | 23 | 211 | 4.8 | 12.9 | 0.00 | 0.00 | 0.00 | 53 | 1021.8 |
| 20260906161607 | 23 | 186 | 11.3 | 22.5 | 0.00 | 0.00 | 0.00 | 54 | 1022.0 |
| 20260906160105 | 22 | 298 | 9.7 | 25.7 | 0.00 | 0.00 | 0.00 | 54 | 1022.1 |
| 20260906154607 | 22 | 173 | 14.5 | 25.7 | 0.00 | 0.00 | 0.00 | 55 | 1022.0 |
| 20260906153107 | 22 | 242 | 9.7 | 19.3 | 0.00 | 0.00 | 0.00 | 56 | 1022.0 |
| 20260906151606 | 21 | 203 | 9.7 | 17.7 | 0.00 | 0.00 | 0.00 | 58 | 1022.1 |
| 20260906150109 | 21 | 168 | 9.7 | 19.3 | 0.00 | 0.00 | 0.00 | 61 | 1022.1 |
| 20260906144622 | 20 | 172 | 9.7 | 22.5 | 0.00 | 0.00 | 0.00 | 61 | 1022.4 |
| 20260906143107 | 20 | 155 | 6.4 | 17.7 | 0.00 | 0.00 | 0.00 | 64 | 1022.4 |
| 20260906141637 | 19 | 207 | 6.4 | 20.9 | 0.00 | 0.00 | 0.00 | 68 | 1022.5 |
| 20260906140110 | 17 | 188 | 4.8 | 16.1 | 0.00 | 0.00 | 0.00 | 76 | 1022.4 |
| 20260906134608 | 15 | 0 | 1.6 | 4.8 | 0.00 | 0.00 | 0.00 | 92 | 1022.5 |
| 20260906133106 | 12 | 0 | 0.0 | 0.0 | 0.00 | 0.00 | 0.00 | 96 | 1022.4 |
| 20260906131607 | 11 | 0 | 0.0 | 0.0 | 0.00 | 0.00 | 0.00 | 97 | 1022.3 |
| 20260906130104 | 10 | 0 | 0.0 | 0.0 | 0.00 | 0.00 | 0.00 | 97 | 1022.1 |
| 20260906124604 | 9 | 0 | 0.0 | 0.0 | 0.00 | 0.00 | 0.00 | 97 | 1022.2 |
| 20260906123108 | 9 | 0 | 0.0 | 0.0 | 0.00 | 0.00 | 0.00 | 96 | 1022.0 |
| 20260906121604 | 9 | 0 | 0.0 | 0.0 | 0.00 | 0.00 | 0.00 | 96 | 1022.0 |
| 20260906120107 | 10 | 0 | 0.0 | 0.0 | 0.00 | 0.00 | 0.00 | 95 | 1022.1 |
| 20260906114604 | 10 | 0 | 0.0 | 0.0 | 0.00 | 0.00 | 0.00 | 96 | 1021.9 |
| 20260906113107 | 10 | 0 | 0.0 | 0.0 | 0.00 | 0.00 | 0.00 | 94 | 1021.9 |
| 20260906111604 | 10 | 0 | 0.0 | 0.0 | 0.00 | 0.00 | 0.00 | 96 | 1021.9 |
| 20260906110107 | 10 | 0 | 0.0 | 0.0 | 0.00 | 0.00 | 0.00 | 96 | 1022.1 |
| 20260906104630 | 10 | 0 | 0.0 | 0.0 | 0.00 | 0.00 | 0.00 | 95 | 1022.0 |
| 20260906103115 | 10 | 236 | 0.0 | 3.2 | 0.00 | 0.00 | 0.00 | 95 | 1022.0 |
| 20260906101603 | 10 | 236 | 0.0 | 4.8 | 0.00 | 0.00 | 0.00 | 94 | 1022.0 |
| 20260906100104 | 11 | 0 | 0.0 | 0.0 | 0.00 | 0.00 | 0.00 | 94 | 1022.0 |
| 20260906094643 | 11 | 0 | 0.0 | 0.0 | 0.00 | 0.00 | 0.00 | 94 | 1022.0 |
| 20260906093111 | 11 | 0 | 0.0 | 1.6 | 0.00 | 0.00 | 0.00 | 93 | 1021.9 |
| 20260906091619 | 11 | 0 | 0.0 | 4.8 | 0.00 | 0.00 | 0.00 | 90 | 1021.9 |
| 20260906090108 | 11 | 0 | 0.0 | 0.0 | 0.00 | 0.00 | 0.00 | 93 | 1022.0 |
| 20260906084607 | 10 | 0 | 0.0 | 0.0 | 0.00 | 0.00 | 0.00 | 92 | 1022.1 |
| 20260906083113 | 11 | 0 | 0.0 | 0.0 | 0.00 | 0.00 | 0.00 | 92 | 1022.0 |
| 20260906081606 | 11 | 0 | 0.0 | 0.0 | 0.00 | 0.00 | 0.00 | 93 | 1022.2 |
| 20260906080104 | 10 | 0 | 0.0 | 4.8 | 0.00 | 0.00 | 0.00 | 93 | 1022.3 |
| 20260906074613 | 10 | 317 | 3.2 | 8.0 | 0.00 | 0.00 | 0.00 | 90 | 1022.2 |
| 20260906073106 | 11 | 0 | 0.0 | 0.0 | 0.00 | 0.00 | 0.00 | 91 | 1021.9 |
| 20260906071607 | 11 | 0 | 0.0 | 0.0 | 0.00 | 0.00 | 0.00 | 88 | 1021.9 |
| 20260906070104 | 12 | 0 | 0.0 | 6.4 | 0.00 | 0.00 | 0.00 | 89 | 1021.9 |
| 20260906064620 | 11 | 0 | 0.0 | 0.0 | 0.00 | 0.00 | 0.00 | 86 | 1021.9 |
| 20260906063103 | 12 | 0 | 0.0 | 0.0 | 0.00 | 0.00 | 0.00 | 84 | 1021.8 |
| 20260906061606 | 12 | 0 | 0.0 | 0.0 | 0.00 | 0.00 | 0.00 | 81 | 1021.7 |
| 20260906060111 | 12 | 0 | 0.0 | 0.0 | 0.00 | 0.00 | 0.00 | 79 | 1021.9 |
| 20260906054607 | 12 | 0 | 0.0 | 0.0 | 0.00 | 0.00 | 0.00 | 77 | 1021.7 |
| 20260906053110 | 13 | 0 | 0.0 | 0.0 | 0.00 | 0.00 | 0.00 | 77 | 1022.1 |
| 20260906051605 | 13 | 0 | 0.0 | 0.0 | 0.00 | 0.00 | 0.00 | 76 | 1022.3 |
| 20260906050133 | 13 | 0 | 0.0 | 0.0 | 0.00 | 0.00 | 0.00 | 77 | 1022.6 |
| 20260906044606 | 13 | 0 | 0.0 | 0.0 | 0.00 | 0.00 | 0.00 | 75 | 1022.4 |
| 20260906043105 | 13 | 0 | 0.0 | 0.0 | 0.00 | 0.00 | 0.00 | 75 | 1022.5 |
| 20260906041608 | 13 | 0 | 0.0 | 0.0 | 0.00 | 0.00 | 0.00 | 74 | 1022.3 |
| 20260906040139 | 13 | 0 | 0.0 | 0.0 | 0.00 | 0.00 | 0.00 | 72 | 1022.1 |
| 20260906034609 | 14 | 0 | 0.0 | 0.0 | 0.00 | 0.00 | 0.00 | 70 | 1022.3 |
| 20260906033109 | 15 | 0 | 0.0 | 0.0 | 0.00 | 0.00 | 0.00 | 69 | 1022.3 |
| 20260906031606 | 15 | 0 | 0.0 | 0.0 | 0.00 | 0.00 | 0.00 | 68 | 1022.5 |
| 20260906030111 | 16 | 0 | 0.0 | 6.4 | 0.00 | 0.00 | 0.00 | 66 | 1022.4 |
| 20260906024608 | 16 | 0 | 0.0 | 1.6 | 0.00 | 0.00 | 0.00 | 63 | 1022.2 |
| 20260906023104 | 17 | 0 | 0.0 | 3.2 | 0.00 | 0.00 | 0.00 | 61 | 1021.8 |
| 20260906021609 | 18 | 0 | 0.0 | 0.0 | 0.00 | 0.00 | 0.00 | 58 | 1021.6 |
| 20260906020107 | 20 | 0 | 0.0 | 0.0 | 0.00 | 0.00 | 0.00 | 54 | 1021.5 |
| 20260906014610 | 21 | 0 | 0.0 | 0.0 | 0.00 | 0.00 | 0.00 | 51 | 1021.6 |
| 20260906013103 | 22 | 0 | 0.0 | 3.2 | 0.00 | 0.00 | 0.00 | 49 | 1021.5 |
| 20260906011604 | 23 | 0 | 0.0 | 3.2 | 0.00 | 0.00 | 0.00 | 47 | 1021.5 |
| 20260906010110 | 23 | 103 | 0.0 | 9.7 | 0.00 | 0.00 | 0.00 | 45 | 1021.5 |
| 20260906004608 | 24 | 81 | 4.8 | 16.1 | 0.00 | 0.00 | 0.00 | 44 | 1021.6 |
| 20260906003105 | 25 | 123 | 11.3 | 27.4 | 0.00 | 0.00 | 0.00 | 41 | 1021.7 |
| 20260906001621 | 26 | 90 | 6.4 | 20.9 | 0.00 | 0.00 | 0.00 | 35 | 1021.6 |
| 20260906000108 | 26 | 113 | 9.7 | 19.3 | 0.00 | 0.00 | 0.00 | 35 | 1021.5 |
| 20260905234602 | 26 | 169 | 6.4 | 12.9 | 0.00 | 0.00 | 0.00 | 37 | 1021.2 |
| 20260905233113 | 26 | 182 | 8.0 | 16.1 | 0.00 | 0.00 | 0.00 | 36 | 1020.9 |
| 20260905231607 | 27 | 122 | 3.2 | 17.7 | 0.00 | 0.00 | 0.00 | 37 | 1020.9 |
| 20260905230115 | 27 | 150 | 9.7 | 19.3 | 0.00 | 0.00 | 0.00 | 35 | 1021.0 |
| 20260905224610 | 28 | 133 | 4.8 | 17.7 | 0.00 | 0.00 | 0.00 | 31 | 1020.9 |
| 20260905223106 | 28 | 133 | 3.2 | 11.3 | 0.00 | 0.00 | 0.00 | 32 | 1020.8 |
| 20260905221612 | 28 | 173 | 11.3 | 19.3 | 0.00 | 0.00 | 0.00 | 31 | 1020.6 |
| 20260905220106 | 28 | 104 | 3.2 | 14.5 | 0.00 | 0.00 | 0.00 | 31 | 1020.5 |
| 20260905214606 | 28 | 118 | 3.2 | 16.1 | 0.00 | 0.00 | 0.00 | 31 | 1020.4 |
| 20260905213110 | 28 | 243 | 6.4 | 12.9 | 0.00 | 0.00 | 0.00 | 31 | 1020.6 |